• Join FlightAware (Why Join?)
  • Login
  • US Flag 
02:35PM EDT


 

Airport Tracker/Info


-or-


 

Live Flight TrackerFlight Track Log ✈ EJA583 ✈ 10-Sep-2013 ✈ KSFO - KCOS

Flight Track Log - Related Links

Times and Time Zones

All times are in EDT time to prevent confusion due to time zone crossing. See the EJA583 flight status page for this flight to view local times or setup timezone preferences in your user account.

Time Position Orientation Groundspeed Altitude Reporting Facility
EDT Latitude Longitude Course Direction KTS MPH feet Rate Location/Type
08:23PM 37.6667 -122.3167 80° East 221 254 4,000  Level Northern Cal TRACON
08:24PM 37.7167 -122.2667 38° Northeast 251 289 6,800 2,700 Climbing Northern Cal TRACON
08:26PM 37.7800 -122.1239 61° Northeast 273 314 11,800 2,580 Climbing Oakland Center
08:27PM 37.8042 -122.0308 72° East 277 319 14,400 2,520 Climbing Oakland Center
08:28PM 37.7375 -121.5342 80° East  Level Estimated
08:28PM 37.8306 -121.9342 71° East 289 333 17,000  Level Oakland Center
08:29PM 37.8569 -121.8336 72° East 300 345 19,700 2,520 Climbing Oakland Center
08:30PM 37.8844 -121.7289 72° East 311 358 22,200 2,460 Climbing Oakland Center
08:31PM 37.9125 -121.6250 71° East 314 361 24,800 2,520 Climbing Oakland Center
08:32PM 37.9392 -121.5197 72° East 315 362 27,400 2,340 Climbing Oakland Center
08:33PM 37.9700 -121.4031 71° East 319 367 29,700 2,100 Climbing Oakland Center
08:34PM 37.9992 -121.2922 72° East 330 380 31,800 1,980 Climbing Oakland Center
08:35PM 38.0275 -121.1808 72° East 334 384 33,800 1,740 Climbing Oakland Center
08:36PM 38.0569 -121.0681 72° East 339 390 35,400 1,500 Climbing Oakland Center
08:37PM 38.0833 -120.9250 77° East 351 404 36,900 840 Climbing Oakland Center
08:38PM 38.1019 -120.7961 80° East 369 425 37,200 660 Climbing Oakland Center
08:39PM 38.1192 -120.6608 81° East 387 445 38,300 1,080 Climbing Oakland Center
08:40PM 38.1375 -120.5269 80° East 388 447 39,400 1,080 Climbing Oakland Center
08:41PM 38.1544 -120.3942 81° East 383 441 40,600 780 Climbing Oakland Center
08:42PM 38.1717 -120.2619 81° East 381 438 41,000 180 Climbing Oakland Center
08:43PM 38.1906 -120.1219 80° East 399 459 41,000  Level Oakland Center
08:44PM 38.2103 -119.9769 80° East 414 476 41,000  Level Oakland Center
08:45PM 38.2328 -119.8006 81° East 422 486 41,000  Level Oakland Center
08:46PM 38.2508 -119.6514 81° East 427 491 41,000  Level Oakland Center
08:47PM 38.2692 -119.5025 81° East 427 491 41,000  Level Oakland Center
08:48PM 38.2853 -119.3622 82° East 429 494 41,000  Level Oakland Center
08:49PM 38.3044 -119.2139 81° East 428 493 41,000  Level Oakland Center
08:50PM 38.3253 -119.0336 82° East 430 495 41,000  Level Oakland Center
08:51PM 38.3433 -118.8869 81° East 424 488 41,000  Level Oakland Center
08:52PM 38.3611 -118.7381 81° East 426 490 41,000  Level Oakland Center
08:53PM 38.3786 -118.5906 81° East 424 488 41,000  Level Oakland Center
08:54PM 38.3944 -118.4458 82° East 418 481 41,000  Level Oakland Center
08:55PM 38.4117 -118.2997 81° East 418 481 41,000  Level Oakland Center
08:57PM 38.4278 -118.1542 82° East 417 480 41,000  Level Oakland Center
08:58PM 38.4444 -118.0014 82° East 416 479 41,000  Level Oakland Center
08:59PM 38.4608 -117.8553 82° East 416 479 41,000  Level Oakland Center
09:00PM 38.4772 -117.7075 82° East 417 480 41,000  Level Oakland Center
09:01PM 38.4919 -117.5600 83° East 418 481 41,000  Level Oakland Center
09:02PM 38.5081 -117.4119 82° East 418 481 41,000  Level Oakland Center
09:03PM 38.5228 -117.2633 83° East 419 482 41,000  Level Oakland Center
09:04PM 38.5433 -117.0544 83° East 420 483 41,000  Level Salt Lake Center
09:05PM 38.5572 -116.9058 83° East 419 482 41,000  Level Salt Lake Center
09:06PM 38.5697 -116.7878 82° East 418 481 41,000  Level Oakland Center
09:07PM 38.5842 -116.6375 83° East 423 487 41,000  Level Oakland Center
09:08PM 38.5983 -116.4886 83° East 421 484 41,000  Level Oakland Center
09:09PM 38.6122 -116.3386 83° East 424 488 41,000  Level Oakland Center
09:10PM 38.6253 -116.1883 84° East 424 488 41,000  Level Oakland Center
09:11PM 38.6392 -116.0381 83° East 425 489 41,000  Level Oakland Center
09:12PM 38.6544 -115.8578 84° East 426 490 41,000  Level Salt Lake Center
09:13PM 38.6694 -115.6758 84° East 428 493 41,000  Level Salt Lake Center
09:14PM 38.6831 -115.5244 83° East 428 493 41,000  Level Salt Lake Center
09:15PM 38.6961 -115.3736 84° East 427 491 41,000  Level Salt Lake Center
09:16PM 38.7086 -115.2139 84° East 426 490 41,000  Level Salt Lake Center
09:17PM 38.7217 -115.0622 84° East 429 494 41,000  Level Salt Lake Center
09:18PM 38.7353 -114.9100 83° East 430 495 41,000  Level Salt Lake Center
09:19PM 38.7472 -114.7578 84° East 430 495 41,000  Level Salt Lake Center
09:20PM 38.7594 -114.6069 84° East 428 493 41,000  Level Salt Lake Center
09:21PM 38.7700 -114.4564 85° East 427 491 41,000  Level Salt Lake Center
09:22PM 38.7817 -114.3042 84° East 428 493 41,000  Level Salt Lake Center
09:23PM 38.7956 -114.1197 84° East 431 496 41,000  Level Salt Lake Center
09:24PM 38.8064 -113.9658 85° East 432 497 41,000  Level Salt Lake Center
09:25PM 38.8172 -113.8111 85° East 435 501 41,000  Level Salt Lake Center
09:26PM 38.8278 -113.6569 85° East 434 499 41,000  Level Salt Lake Center
09:27PM 38.8383 -113.5042 85° East 431 496 41,000  Level Salt Lake Center
09:29PM 38.8492 -113.3494 85° East 434 499 41,000  Level Salt Lake Center
09:30PM 38.8586 -113.1989 85° East 427 491 41,000  Level Salt Lake Center
09:31PM 38.8686 -113.0439 85° East 433 498 41,000  Level Salt Lake Center
09:32PM 38.8783 -112.8878 85° East 438 504 41,000  Level Salt Lake Center
09:33PM 38.8892 -112.7047 86° East 430 495 41,000  Level Salt Lake Center
09:34PM 38.8981 -112.5489 86° East 435 501 41,000  Level Salt Lake Center
09:35PM 38.9083 -112.3950 85° East 433 498 41,000  Level Salt Lake Center
09:36PM 38.9167 -112.2400 86° East 435 501 41,000  Level Salt Lake Center
09:37PM 38.9250 -112.0867 86° East 432 497 41,000  Level Salt Lake Center
09:38PM 38.9342 -111.9325 86° East 433 498 41,000  Level Salt Lake Center
09:39PM 38.9422 -111.7783 86° East 433 498 41,000  Level Salt Lake Center
09:40PM 38.9497 -111.6236 86° East 434 499 41,000  Level Salt Lake Center
09:41PM 38.9578 -111.4708 86° East 431 496 41,000  Level Salt Lake Center
09:42PM 38.9656 -111.3144 86° East 438 504 41,000  Level Salt Lake Center
09:43PM 38.9750 -111.1275 86° East 438 504 41,000  Level Salt Lake Center
09:44PM 38.9794 -110.9736 88° East 439 505 41,000  Level Salt Lake Center
09:45PM 38.9867 -110.8239 86° East 439 505 41,000  Level Salt Lake Center
09:46PM 38.9936 -110.6481 87° East 441 507 41,000  Level Salt Lake Center
09:47PM 39.0008 -110.4997 86° East 438 504 41,000  Level Salt Lake Center
09:48PM 38.9869 -110.3508 97° East 437 503 41,000  Level Salt Lake Center
09:49PM 38.9711 -110.1803 97° East 432 497 41,000  Level Salt Lake Center
09:50PM 38.9572 -110.0403 97° East 418 481 41,000  Level Salt Lake Center
09:51PM 38.9417 -109.8828 97° East 403 464 41,000  Level Salt Lake Center
09:52PM 38.9286 -109.7433 97° East 408 470 41,000  Level Salt Lake Center
09:53PM 38.9114 -109.5778 98° East 419 482 41,000  Level Salt Lake Center
09:54PM 38.8961 -109.4356 98° East 421 484 41,000  Level Salt Lake Center
09:55PM 38.8883 -109.3614 98° East 423 487 41,000  Level Denver Center
09:56PM 38.8681 -109.1656 98° East 433 498 41,000  Level Denver Center
09:57PM 38.8522 -109.0175 98° East 440 506 41,000  Level Denver Center
09:58PM 38.8372 -108.8711 97° East 436 502 41,000  Level Denver Center
09:59PM 38.8194 -108.7028 98° East 428 493 41,000  Level Denver Center
10:00PM 38.8036 -108.5592 98° East 427 491 41,000  Level Denver Center
10:01PM 38.7853 -108.3944 98° East 422 486 41,000  Level Denver Center
10:02PM 38.7697 -108.2522 98° East 422 486 41,000  Level Denver Center
10:03PM 38.7542 -108.1111 98° East 421 484 41,000  Level Denver Center
10:04PM 38.7358 -107.9444 98° East 424 488 41,000  Level Denver Center
10:05PM 38.7192 -107.8036 99° East 421 484 41,000  Level Denver Center
10:06PM 38.7006 -107.6361 98° East 424 488 41,000  Level Denver Center
10:07PM 38.6825 -107.4925 99° East 427 491 41,000  Level Denver Center
10:08PM 38.6619 -107.3239 99° East 430 495 41,000 -240 Level Denver Center
10:09PM 38.6444 -107.1778 99° East 434 499 40,600 -720 Descending Denver Center
10:10PM 38.6286 -107.0397 98° East 440 506 39,600 -1,380 Descending Denver Center
10:11PM 38.6047 -106.8494 99° East 452 520 37,800 -1,620 Descending Denver Center
10:12PM 38.5842 -106.6922 99° East 451 519 36,400 -1,440 Descending Denver Center
10:13PM 38.5664 -106.5403 98° East 440 506 34,900 -1,320 Descending Denver Center
10:14PM 38.5494 -106.4217 100° East 431 496 33,800 -1,440 Descending Denver Center
10:15PM 38.5256 -106.2394 99° East 433 498 32,000 -1,620 Descending Denver Center
10:16PM 38.5067 -106.0836 99° East 431 496 30,500 -1,560 Descending Denver Center
10:17PM 38.4856 -105.9139 99° East 432 497 28,900 -1,500 Descending Denver Center
10:18PM 38.4636 -105.7539 100° East 440 506 27,400 -960 Descending Denver Center
10:19PM 38.4422 -105.5997 100° East 443 510 27,000 -840 Descending Denver Center
10:20PM 38.4225 -105.4508 100° East 431 496 25,800 -1,500 Descending Denver Center
10:21PM 38.4050 -105.3286 100° East 436 502 24,000 -2,340 Descending Denver Center
10:22PM 38.3806 -105.1414 99° East 420 483 21,100 -2,400 Descending Denver Center
10:23PM 38.3606 -105.0072 101° East 407 468 19,100 -2,220 Descending Denver Center
10:24PM 38.3508 -104.9511 102° East 391 450 17,900 -1,920 Descending Denver Center
10:24PM 38.3442 -104.8819 97° East 385 443 17,200 -1,860 Descending Denver Center
10:25PM 38.3247 -104.7431 100° East 364 419 15,000 -1,620 Descending Denver Center
10:26PM 38.3889 -104.6539 47° Northeast 390 449 14,000 -540 Descending Denver Center
10:28PM 38.5058 -104.6453 North 378 435 14,000 -300 Level Denver Center
10:28PM 38.5367 -104.6456 360° North 376 433 13,600 -1,200 Descending Denver Center
10:29PM 38.6028 -104.6375 North 369 425 12,800 -1,200 Descending Denver Center
10:30PM 38.6969 -104.6286 North 359 413 11,600 -1,320 Descending Denver Center
10:31PM 38.7997 -104.6156 North 332 382 10,100 -1,260 Descending Denver Center
10:32PM 38.8689 -104.6106 North 280 322 9,100 -1,020 Descending Denver Center
10:32PM 38.8833 -104.6319 311° West 252 290 8,800 -840 Descending Denver Center
10:33PM 38.8917 -104.6847 281° West 237 273 8,300 -660 Descending Denver Center
10:34PM 38.8642 -104.7258 229° Southwest 204 235 7,700 -600 Descending Denver Center
10:36PM 38.8000 -104.7000 205° Southwest  Level FlightAware Approximate